createdAt,value
2024-02-07T00:00:04.559Z,2.00
2024-02-07T00:02:03.341Z,1.90
2024-02-07T00:04:03.060Z,1.80
2024-02-07T00:05:58.101Z,2.20
2024-02-07T00:07:51.400Z,1.80
2024-02-07T00:09:46.325Z,1.90
2024-02-07T00:11:39.416Z,1.90
2024-02-07T00:13:37.999Z,2.10
2024-02-07T00:15:34.061Z,2.10
2024-02-07T00:17:31.969Z,1.90
2024-02-07T00:19:35.084Z,2.20
2024-02-07T00:21:29.632Z,1.80
2024-02-07T00:25:00.164Z,2.10
2024-02-07T00:27:00.017Z,1.80
2024-02-07T00:28:52.309Z,1.90
2024-02-07T00:32:46.251Z,1.80
2024-02-07T00:34:51.415Z,2.10
2024-02-07T00:36:46.512Z,1.90
2024-02-07T00:38:41.600Z,1.80
2024-02-07T00:40:34.550Z,2.00
2024-02-07T00:42:25.657Z,1.80
2024-02-07T00:44:16.852Z,1.90
2024-02-07T00:46:06.185Z,1.80
2024-02-07T00:48:06.219Z,1.90
2024-02-07T00:50:11.600Z,2.00
2024-02-07T00:52:14.854Z,1.80
2024-02-07T00:54:06.340Z,1.90
2024-02-07T00:56:04.245Z,1.80
2024-02-07T00:58:09.958Z,1.80
2024-02-07T01:00:16.035Z,1.80
2024-02-07T01:02:16.268Z,1.80
2024-02-07T01:04:03.408Z,1.80
2024-02-07T01:06:10.755Z,1.80
2024-02-07T01:08:14.446Z,1.80
2024-02-07T01:10:11.638Z,1.90
2024-02-07T01:11:56.445Z,1.70
2024-02-07T01:13:42.564Z,1.80
2024-02-07T01:15:36.253Z,1.90
2024-02-07T01:17:34.614Z,1.70
2024-02-07T01:19:29.720Z,1.70
2024-02-07T01:21:24.422Z,1.90
2024-02-07T01:23:12.829Z,2.00
2024-02-07T01:25:02.424Z,1.60
2024-02-07T01:26:56.931Z,1.70
2024-02-07T01:28:46.877Z,1.80
2024-02-07T01:30:39.303Z,1.70
2024-02-07T01:32:44.141Z,1.70
2024-02-07T01:34:40.539Z,1.60
2024-02-07T01:36:31.589Z,1.70
2024-02-07T01:38:35.871Z,1.90
2024-02-07T01:40:30.022Z,1.60
2024-02-07T01:42:29.345Z,1.70
2024-02-07T01:44:33.602Z,1.70
2024-02-07T01:46:30.292Z,1.50
2024-02-07T01:48:29.281Z,1.70
2024-02-07T01:50:31.415Z,1.80
2024-02-07T01:52:28.534Z,1.40
2024-02-07T01:54:29.945Z,1.60
2024-02-07T01:56:26.759Z,1.50
2024-02-07T01:58:17.705Z,1.60
2024-02-07T02:00:23.601Z,1.60
2024-02-07T02:02:21.988Z,1.60
2024-02-07T02:04:17.422Z,1.50
2024-02-07T02:06:13.770Z,1.60
2024-02-07T02:08:14.804Z,1.50
2024-02-07T02:10:14.695Z,1.70
2024-02-07T02:12:05.854Z,1.50
2024-02-07T02:14:03.192Z,1.40
2024-02-07T02:15:59.683Z,1.60
2024-02-07T02:18:02.612Z,1.60
2024-02-07T02:20:10.610Z,1.60
2024-02-07T02:22:43.431Z,1.50
2024-02-07T02:25:09.122Z,1.40
2024-02-07T02:27:21.279Z,1.60
2024-02-07T02:29:38.172Z,1.50
2024-02-07T02:31:36.744Z,1.60
2024-02-07T02:33:33.690Z,1.60
2024-02-07T02:35:33.289Z,1.50
2024-02-07T02:38:58.609Z,1.50
2024-02-07T02:40:56.329Z,1.40
2024-02-07T02:42:49.395Z,1.70
2024-02-07T02:44:53.844Z,1.50
2024-02-07T02:46:57.904Z,1.20
2024-02-07T02:48:56.584Z,1.50
2024-02-07T02:50:55.541Z,1.40
2024-02-07T02:52:53.455Z,1.50
2024-02-07T02:54:49.974Z,1.50
2024-02-07T02:56:42.560Z,1.20
2024-02-07T02:58:39.143Z,1.40
2024-02-07T03:00:31.932Z,1.50
2024-02-07T03:02:21.699Z,1.50
2024-02-07T03:04:27.783Z,1.80
2024-02-07T03:06:31.527Z,1.50
2024-02-07T03:08:23.448Z,1.40
2024-02-07T03:10:20.034Z,1.50
2024-02-07T03:13:35.279Z,1.50
2024-02-07T03:15:29.204Z,1.40
2024-02-07T03:17:24.286Z,1.50
2024-02-07T03:19:17.546Z,1.40
2024-02-07T03:21:11.000Z,1.50
2024-02-07T03:23:03.325Z,1.60
2024-02-07T03:24:57.072Z,1.70
2024-02-07T03:26:50.063Z,1.60
2024-02-07T03:28:44.008Z,1.50
2024-02-07T03:30:40.084Z,1.60
2024-02-07T03:32:42.986Z,1.40
2024-02-07T03:34:41.912Z,1.40
2024-02-07T03:36:45.881Z,1.30
2024-02-07T03:39:04.380Z,1.40
2024-02-07T03:41:11.125Z,1.40
2024-02-07T03:43:11.552Z,1.40
2024-02-07T03:45:11.566Z,1.30
2024-02-07T03:47:13.584Z,1.30
2024-02-07T03:49:17.618Z,1.50
2024-02-07T03:51:19.455Z,1.30
2024-02-07T03:53:17.506Z,1.40
2024-02-07T03:55:10.065Z,1.30
2024-02-07T03:57:12.724Z,1.50
2024-02-07T03:59:08.511Z,1.30
2024-02-07T04:00:54.082Z,1.40
2024-02-07T04:02:48.369Z,1.50
2024-02-07T04:04:53.148Z,1.30
2024-02-07T04:06:49.675Z,1.40
2024-02-07T04:08:49.886Z,1.10
2024-02-07T04:11:54.540Z,1.30
2024-02-07T04:13:40.298Z,1.40
2024-02-07T04:15:40.630Z,1.10
2024-02-07T04:17:44.996Z,1.50
2024-02-07T04:19:51.747Z,1.30
2024-02-07T04:21:57.826Z,1.40
2024-02-07T04:23:58.728Z,1.20
2024-02-07T04:26:00.308Z,1.30
2024-02-07T04:28:03.159Z,1.20
2024-02-07T04:30:10.575Z,1.30
2024-02-07T04:32:16.735Z,1.40
2024-02-07T04:34:26.822Z,1.20
2024-02-07T04:36:30.011Z,1.40
2024-02-07T04:38:43.502Z,1.20
2024-02-07T04:40:56.110Z,1.50
2024-02-07T04:42:57.303Z,1.60
2024-02-07T04:44:56.158Z,1.60
2024-02-07T04:46:55.134Z,1.70
2024-02-07T04:49:00.514Z,1.20
2024-02-07T04:51:06.672Z,1.20
2024-02-07T04:53:18.672Z,1.10
2024-02-07T04:55:29.696Z,1.30
2024-02-07T04:57:34.961Z,1.50
2024-02-07T04:59:36.947Z,1.20
2024-02-07T05:01:50.901Z,1.10
2024-02-07T05:04:08.418Z,1.00
2024-02-07T05:06:19.881Z,1.10
2024-02-07T05:08:37.104Z,1.10
2024-02-07T05:10:46.296Z,1.10
2024-02-07T05:12:51.369Z,1.20
2024-02-07T05:14:53.705Z,1.00
2024-02-07T05:16:58.565Z,0.90
2024-02-07T05:18:56.984Z,0.90
2024-02-07T05:20:48.704Z,0.90
2024-02-07T05:22:46.403Z,1.00
2024-02-07T05:24:33.369Z,0.80
2024-02-07T05:26:20.360Z,1.00
2024-02-07T05:28:19.656Z,0.90
2024-02-07T05:30:06.533Z,0.80
2024-02-07T05:32:04.949Z,0.90
2024-02-07T05:33:55.709Z,0.90
2024-02-07T05:35:53.958Z,0.80
2024-02-07T05:39:32.707Z,0.90
2024-02-07T05:41:22.744Z,0.70
2024-02-07T05:43:08.510Z,0.80
2024-02-07T05:45:03.071Z,0.70
2024-02-07T05:46:57.475Z,0.70
2024-02-07T05:48:56.122Z,0.60
2024-02-07T05:50:53.489Z,0.70
2024-02-07T05:52:53.974Z,0.90
2024-02-07T05:54:42.661Z,0.60
2024-02-07T05:56:41.199Z,0.70
2024-02-07T05:58:26.200Z,0.60
2024-02-07T06:00:15.672Z,0.70
2024-02-07T06:02:06.168Z,0.70
2024-02-07T06:04:01.737Z,0.70
2024-02-07T06:06:08.188Z,0.60
2024-02-07T06:08:11.611Z,0.60
2024-02-07T06:10:15.105Z,0.80
2024-02-07T06:13:51.540Z,0.60
2024-02-07T06:15:45.755Z,0.70
2024-02-07T06:17:41.852Z,0.60
2024-02-07T06:19:37.242Z,0.50
2024-02-07T06:21:38.079Z,0.50
2024-02-07T06:23:32.961Z,0.60
2024-02-07T06:25:28.283Z,0.60
2024-02-07T06:27:19.070Z,0.50
2024-02-07T06:29:22.233Z,0.60
2024-02-07T06:31:25.575Z,0.50
2024-02-07T06:33:17.874Z,0.70
2024-02-07T06:35:18.522Z,0.70
2024-02-07T06:38:40.418Z,0.60
2024-02-07T06:40:31.088Z,0.60
2024-02-07T06:42:21.893Z,0.50
2024-02-07T06:44:25.215Z,0.50
2024-02-07T06:46:31.237Z,0.50
2024-02-07T06:48:33.421Z,0.70
2024-02-07T06:50:37.405Z,0.60
2024-02-07T06:52:37.373Z,0.50
2024-02-07T06:54:37.480Z,0.50
2024-02-07T06:56:37.352Z,0.50
2024-02-07T06:58:31.928Z,0.40
2024-02-07T07:00:29.270Z,0.60
2024-02-07T07:03:03.576Z,0.70
2024-02-07T07:04:53.044Z,0.60
2024-02-07T07:08:41.850Z,0.60
2024-02-07T07:10:38.893Z,0.30
2024-02-07T07:12:33.152Z,0.60
2024-02-07T07:14:24.579Z,0.50
2024-02-07T07:16:19.126Z,0.60
2024-02-07T07:18:12.763Z,0.60
2024-02-07T07:20:09.426Z,0.60
2024-02-07T07:22:03.410Z,0.50
2024-02-07T07:23:56.134Z,0.50
2024-02-07T07:25:48.091Z,0.50
2024-02-07T07:27:48.493Z,0.40
2024-02-07T07:29:38.890Z,0.50
2024-02-07T07:31:39.202Z,0.40
2024-02-07T07:33:33.974Z,0.60
2024-02-07T07:35:29.493Z,0.30
2024-02-07T07:37:25.588Z,0.40
2024-02-07T07:39:20.675Z,0.50
2024-02-07T07:41:10.501Z,0.50
2024-02-07T07:43:04.989Z,0.60
2024-02-07T07:44:58.223Z,0.50
2024-02-07T07:46:55.391Z,0.50
2024-02-07T07:48:48.429Z,0.50
2024-02-07T07:50:43.190Z,0.40
2024-02-07T07:52:42.561Z,0.60
2024-02-07T07:54:36.420Z,0.50
2024-02-07T07:56:40.084Z,0.50
2024-02-07T07:58:48.607Z,0.40
2024-02-07T08:00:48.777Z,0.50
2024-02-07T08:02:42.388Z,0.50
2024-02-07T08:04:37.261Z,0.60
2024-02-07T08:06:35.608Z,0.40
2024-02-07T08:08:49.258Z,0.40
2024-02-07T08:10:48.978Z,0.50
2024-02-07T08:12:40.992Z,0.50
2024-02-07T08:14:37.506Z,0.40
2024-02-07T08:16:30.573Z,0.40
2024-02-07T08:18:25.306Z,0.50
2024-02-07T08:20:29.456Z,0.50
2024-02-07T08:22:17.350Z,0.40
2024-02-07T08:24:05.462Z,0.40
2024-02-07T08:25:57.646Z,0.60
2024-02-07T08:28:00.663Z,0.40
2024-02-07T08:29:59.836Z,0.40
2024-02-07T08:32:03.099Z,0.60
2024-02-07T08:34:17.341Z,0.40
2024-02-07T08:36:28.040Z,0.50
2024-02-07T08:38:31.508Z,0.60
2024-02-07T08:40:24.166Z,0.60
2024-02-07T08:42:20.424Z,0.60
2024-02-07T08:44:14.812Z,0.60
2024-02-07T08:46:06.683Z,0.50
2024-02-07T08:47:57.652Z,0.70
2024-02-07T08:49:44.966Z,0.40
2024-02-07T08:51:34.923Z,0.50
2024-02-07T08:53:23.252Z,0.50
2024-02-07T08:55:23.104Z,0.50
2024-02-07T08:57:31.304Z,0.50
2024-02-07T08:59:30.421Z,0.50
2024-02-07T09:01:37.095Z,0.50
2024-02-07T09:04:50.433Z,0.50
2024-02-07T09:06:52.617Z,0.60
2024-02-07T09:08:54.399Z,0.60
2024-02-07T09:11:01.572Z,0.50
2024-02-07T09:12:57.296Z,0.60
2024-02-07T09:14:52.257Z,0.60
2024-02-07T09:16:48.334Z,0.60
2024-02-07T09:18:43.804Z,0.40
2024-02-07T09:20:35.271Z,0.60
2024-02-07T09:22:30.831Z,0.50
2024-02-07T09:24:28.539Z,0.50
2024-02-07T09:26:21.415Z,0.50
2024-02-07T09:28:21.600Z,0.70
2024-02-07T09:30:25.812Z,0.50
2024-02-07T09:32:23.680Z,0.60
2024-02-07T09:34:12.244Z,0.50
2024-02-07T09:36:08.831Z,0.60
2024-02-07T09:38:09.657Z,0.60
2024-02-07T09:40:13.965Z,0.60
2024-02-07T09:42:12.669Z,0.60
2024-02-07T09:44:10.211Z,0.60
2024-02-07T09:46:08.899Z,0.50
2024-02-07T09:48:07.732Z,0.70
2024-02-07T09:50:04.070Z,0.60
2024-02-07T09:51:57.458Z,0.80
2024-02-07T09:53:51.107Z,0.60
2024-02-07T09:55:45.401Z,0.80
2024-02-07T09:57:44.100Z,0.60
2024-02-07T10:01:05.432Z,0.70
2024-02-07T10:03:00.234Z,0.60
2024-02-07T10:04:58.323Z,0.70
2024-02-07T10:06:50.936Z,0.80
2024-02-07T10:08:39.705Z,0.60
2024-02-07T10:10:31.784Z,0.80
2024-02-07T10:12:22.842Z,0.70
2024-02-07T10:14:18.739Z,0.70
2024-02-07T10:17:58.870Z,0.60
2024-02-07T10:19:47.242Z,0.70
2024-02-07T10:21:46.074Z,0.70
2024-02-07T10:23:34.541Z,0.80
2024-02-07T10:25:29.798Z,0.70
2024-02-07T10:27:28.551Z,0.80
2024-02-07T10:29:25.773Z,0.70
2024-02-07T10:31:18.412Z,0.60
2024-02-07T10:35:02.864Z,0.70
2024-02-07T10:37:05.965Z,0.60
2024-02-07T10:39:05.684Z,0.80
2024-02-07T10:40:55.691Z,0.80
2024-02-07T10:43:04.909Z,0.70
2024-02-07T10:46:25.582Z,0.80
2024-02-07T10:48:21.070Z,0.70
2024-02-07T10:50:28.674Z,0.80
2024-02-07T10:52:21.340Z,0.80
2024-02-07T10:54:14.840Z,1.00
2024-02-07T10:56:22.651Z,0.60
2024-02-07T10:58:23.688Z,0.80
2024-02-07T11:00:45.493Z,0.90
2024-02-07T11:02:42.200Z,0.90
2024-02-07T11:04:36.068Z,0.90
2024-02-07T11:06:40.245Z,1.00
2024-02-07T11:08:39.285Z,0.80
2024-02-07T11:10:39.733Z,1.00
2024-02-07T11:12:45.010Z,0.90
2024-02-07T11:14:52.027Z,1.00
2024-02-07T11:16:55.710Z,0.80
2024-02-07T11:18:48.607Z,1.00
2024-02-07T11:20:42.870Z,0.90
2024-02-07T11:22:44.405Z,0.90
2024-02-07T11:24:53.116Z,0.90
2024-02-07T11:26:50.941Z,0.90
2024-02-07T11:28:57.074Z,1.00
2024-02-07T11:30:56.861Z,0.90
2024-02-07T11:32:55.384Z,1.00
2024-02-07T11:34:52.485Z,0.80
2024-02-07T11:36:46.332Z,0.90
2024-02-07T11:38:44.736Z,0.90
2024-02-07T11:40:54.034Z,1.00
2024-02-07T11:43:11.406Z,1.00
2024-02-07T11:45:31.114Z,1.00
2024-02-07T11:47:46.874Z,1.00
2024-02-07T11:50:01.441Z,1.00
2024-02-07T11:52:04.187Z,1.10
2024-02-07T11:53:56.066Z,1.20
2024-02-07T11:56:00.209Z,1.20
2024-02-07T11:58:04.164Z,1.20
2024-02-07T12:00:00.940Z,0.90
2024-02-07T12:01:53.946Z,1.10
2024-02-07T12:03:57.028Z,1.10
2024-02-07T12:06:05.781Z,1.20
2024-02-07T12:08:03.627Z,1.00
2024-02-07T12:09:56.462Z,0.90
2024-02-07T12:11:54.000Z,1.10
2024-02-07T12:13:44.586Z,1.00
2024-02-07T12:15:43.076Z,1.10
2024-02-07T12:17:35.771Z,1.10
2024-02-07T12:19:23.833Z,1.10
2024-02-07T12:21:22.564Z,1.20
2024-02-07T12:23:14.633Z,1.00
2024-02-07T12:25:27.263Z,1.20
2024-02-07T12:27:29.578Z,1.10
2024-02-07T12:29:25.256Z,1.10
2024-02-07T12:31:22.864Z,1.00
2024-02-07T12:33:19.808Z,1.10
2024-02-07T12:35:14.713Z,1.20
2024-02-07T12:38:18.068Z,1.20
2024-02-07T12:40:22.447Z,1.10
2024-02-07T12:42:28.413Z,1.10
2024-02-07T12:44:29.140Z,1.10
2024-02-07T12:46:19.104Z,1.20
2024-02-07T12:48:10.458Z,1.30
2024-02-07T12:50:04.222Z,1.30
2024-02-07T12:51:58.565Z,1.10
2024-02-07T12:53:59.347Z,1.10
2024-02-07T12:55:51.852Z,1.20
2024-02-07T12:57:50.848Z,1.40
2024-02-07T12:59:42.691Z,1.30
2024-02-07T13:01:33.837Z,1.40
2024-02-07T13:03:25.033Z,1.20
2024-02-07T13:05:17.584Z,1.40
2024-02-07T13:07:20.653Z,1.20
2024-02-07T13:09:13.319Z,1.60
2024-02-07T13:11:15.057Z,1.30
2024-02-07T13:13:10.601Z,1.30
2024-02-07T13:15:02.137Z,1.20
2024-02-07T13:16:54.280Z,1.40
2024-02-07T13:18:46.436Z,1.40
2024-02-07T13:20:38.875Z,1.30
2024-02-07T13:22:27.618Z,1.30
2024-02-07T13:24:26.399Z,1.40
2024-02-07T13:26:27.834Z,1.40
2024-02-07T13:28:20.798Z,1.10
2024-02-07T13:30:28.353Z,1.50
2024-02-07T13:32:25.005Z,1.40
2024-02-07T13:34:15.062Z,1.50
2024-02-07T13:36:06.274Z,1.40
2024-02-07T13:38:10.788Z,1.30
2024-02-07T13:40:11.622Z,1.30
2024-02-07T13:42:06.599Z,1.20
2024-02-07T13:43:55.464Z,1.30
2024-02-07T13:45:49.675Z,1.20
2024-02-07T13:47:39.105Z,1.20
2024-02-07T13:49:39.134Z,1.40
2024-02-07T13:51:41.809Z,1.40
2024-02-07T13:53:46.151Z,1.30
2024-02-07T13:55:36.784Z,1.30
2024-02-07T13:59:14.652Z,1.30
2024-02-07T14:01:03.569Z,1.40
2024-02-07T14:02:54.042Z,1.30
2024-02-07T14:04:58.576Z,1.30
2024-02-07T14:06:46.886Z,1.30
2024-02-07T14:08:48.276Z,1.30
2024-02-07T14:10:44.885Z,1.30
2024-02-07T14:12:35.319Z,1.20
2024-02-07T14:14:33.339Z,1.40
2024-02-07T14:16:28.712Z,1.40
2024-02-07T14:18:37.160Z,1.30
2024-02-07T14:20:28.723Z,1.40
2024-02-07T14:22:23.813Z,1.70
2024-02-07T14:24:19.606Z,1.20
2024-02-07T14:26:10.520Z,1.20
2024-02-07T14:27:59.934Z,1.50
2024-02-07T14:30:03.451Z,1.50
2024-02-07T14:31:50.539Z,1.20
2024-02-07T14:33:40.441Z,1.50
2024-02-07T14:35:25.440Z,1.30
2024-02-07T14:37:12.174Z,1.40
2024-02-07T14:38:59.734Z,1.30
2024-02-07T14:40:45.866Z,1.20
2024-02-07T14:42:33.747Z,1.50
2024-02-07T14:44:22.810Z,1.50
2024-02-07T14:46:11.853Z,1.50
2024-02-07T14:48:03.835Z,1.50
2024-02-07T14:49:54.521Z,1.40
2024-02-07T14:51:42.826Z,1.60
2024-02-07T14:53:28.937Z,1.30
2024-02-07T14:55:20.045Z,1.60
2024-02-07T14:57:09.443Z,1.50
2024-02-07T14:58:54.081Z,1.20
2024-02-07T15:00:39.241Z,1.30
2024-02-07T15:02:23.752Z,1.30
2024-02-07T15:04:09.016Z,1.30
2024-02-07T15:05:54.016Z,1.20
2024-02-07T15:07:39.806Z,1.10
2024-02-07T15:09:25.426Z,1.10
2024-02-07T15:11:16.393Z,1.20
2024-02-07T15:13:05.900Z,1.20
2024-02-07T15:14:52.183Z,1.00
2024-02-07T15:16:42.749Z,1.10
2024-02-07T15:18:31.988Z,1.10
2024-02-07T15:20:17.912Z,1.10
2024-02-07T15:22:09.612Z,1.10
2024-02-07T15:23:55.212Z,1.10
2024-02-07T15:25:43.524Z,1.00
2024-02-07T15:27:31.142Z,1.00
2024-02-07T15:29:18.934Z,1.10
2024-02-07T15:31:06.202Z,1.10
2024-02-07T15:32:53.500Z,0.90
2024-02-07T15:34:42.035Z,1.10
2024-02-07T15:36:31.251Z,0.90
2024-02-07T15:38:17.292Z,1.00
2024-02-07T15:40:07.645Z,0.90
2024-02-07T15:41:52.184Z,0.90
2024-02-07T15:43:37.137Z,0.90
2024-02-07T15:45:22.118Z,1.00
2024-02-07T15:47:06.936Z,0.90
2024-02-07T15:48:59.125Z,0.90
2024-02-07T15:50:52.400Z,1.00
2024-02-07T15:52:37.716Z,1.10
2024-02-07T15:54:22.647Z,0.80
2024-02-07T15:56:11.141Z,0.80
2024-02-07T15:57:57.906Z,0.90
2024-02-07T15:59:45.768Z,1.10
2024-02-07T16:01:45.782Z,1.00
2024-02-07T16:03:39.603Z,0.90
2024-02-07T16:05:25.457Z,1.10
2024-02-07T16:07:10.604Z,1.10
2024-02-07T16:09:05.077Z,1.00
2024-02-07T16:10:55.076Z,1.10
2024-02-07T16:12:40.388Z,1.10
2024-02-07T16:14:25.231Z,1.20
2024-02-07T16:16:12.300Z,1.10
2024-02-07T16:18:04.347Z,1.20
2024-02-07T16:19:50.991Z,1.40
2024-02-07T16:21:37.200Z,1.30
2024-02-07T16:23:25.443Z,1.10
2024-02-07T16:25:12.232Z,1.20
2024-02-07T16:26:57.335Z,1.20
2024-02-07T16:28:47.883Z,1.20
2024-02-07T16:30:36.832Z,1.50
2024-02-07T16:32:25.657Z,1.30
2024-02-07T16:34:13.276Z,1.50
2024-02-07T16:36:02.965Z,1.50
2024-02-07T16:37:49.019Z,1.20
2024-02-07T16:39:41.011Z,1.30
2024-02-07T16:41:26.192Z,1.30
2024-02-07T16:43:13.868Z,1.30
2024-02-07T16:44:59.920Z,1.40
2024-02-07T16:46:48.082Z,1.60
2024-02-07T16:48:36.651Z,1.40
2024-02-07T16:50:22.038Z,1.50
2024-02-07T16:52:08.040Z,1.50
2024-02-07T16:53:58.891Z,1.50
2024-02-07T16:55:46.027Z,1.40
2024-02-07T16:57:34.701Z,1.40
2024-02-07T16:59:31.431Z,1.60
2024-02-07T17:01:23.598Z,1.40
2024-02-07T17:03:10.700Z,1.40
2024-02-07T17:04:55.523Z,1.50
2024-02-07T17:06:43.943Z,1.60
2024-02-07T17:08:33.843Z,1.30
2024-02-07T17:10:20.919Z,1.50
2024-02-07T17:12:06.272Z,1.30
2024-02-07T17:13:51.275Z,1.40
2024-02-07T17:15:39.030Z,1.40
2024-02-07T17:17:25.691Z,1.40
2024-02-07T17:19:14.954Z,1.60
2024-02-07T17:21:01.759Z,1.60
2024-02-07T17:22:47.060Z,1.40
2024-02-07T17:24:37.809Z,1.40
2024-02-07T17:26:24.744Z,1.30
2024-02-07T17:28:11.073Z,1.60
2024-02-07T17:30:01.942Z,1.60
2024-02-07T17:31:49.394Z,1.40
2024-02-07T17:33:34.554Z,1.50
2024-02-07T17:35:19.788Z,1.50
2024-02-07T17:37:05.210Z,1.40
2024-02-07T17:38:53.282Z,1.40
2024-02-07T17:40:47.169Z,1.50
2024-02-07T17:42:39.017Z,1.30
2024-02-07T17:44:26.464Z,1.50
2024-02-07T17:46:21.079Z,1.20
2024-02-07T17:48:10.841Z,1.30
2024-02-07T17:49:58.061Z,1.50
2024-02-07T17:51:48.396Z,1.30
2024-02-07T17:53:34.902Z,1.30
2024-02-07T17:55:25.846Z,1.60
2024-02-07T17:57:12.689Z,1.40
2024-02-07T17:59:04.265Z,1.50
2024-02-07T18:00:55.342Z,1.50
2024-02-07T18:02:46.606Z,1.50
2024-02-07T18:04:32.574Z,1.50
2024-02-07T18:06:23.760Z,1.30
2024-02-07T18:08:11.021Z,1.60
2024-02-07T18:10:02.288Z,1.60
2024-02-07T18:11:52.555Z,1.70
2024-02-07T18:13:39.170Z,1.50
2024-02-07T18:15:29.867Z,1.50
2024-02-07T18:17:15.080Z,1.50
2024-02-07T18:19:01.983Z,1.40
2024-02-07T18:20:53.621Z,1.30
2024-02-07T18:22:40.239Z,1.60
2024-02-07T18:24:27.671Z,1.70
2024-02-07T18:26:17.294Z,1.30
2024-02-07T18:28:02.376Z,1.50
2024-02-07T18:29:51.527Z,1.50
2024-02-07T18:31:46.083Z,1.40
2024-02-07T18:33:31.616Z,1.40
2024-02-07T18:35:22.119Z,1.70
2024-02-07T18:37:10.022Z,1.40
2024-02-07T18:38:59.953Z,1.60
2024-02-07T18:40:45.597Z,1.50
2024-02-07T18:42:33.603Z,1.50
2024-02-07T18:44:24.262Z,1.50
2024-02-07T18:46:18.232Z,1.50
2024-02-07T18:48:09.659Z,1.60
2024-02-07T18:49:56.044Z,1.50
2024-02-07T18:51:41.124Z,1.40
2024-02-07T18:53:26.528Z,1.30
2024-02-07T18:55:12.553Z,1.30
2024-02-07T18:57:00.011Z,1.60
2024-02-07T18:58:49.788Z,1.50
2024-02-07T19:03:45.300Z,1.40
2024-02-07T19:05:36.586Z,1.50
2024-02-07T19:07:25.642Z,1.50
2024-02-07T19:09:11.383Z,1.50
2024-02-07T19:10:56.403Z,1.50
2024-02-07T19:12:42.240Z,1.60
2024-02-07T19:14:27.752Z,1.70
2024-02-07T19:16:15.935Z,1.70
2024-02-07T19:18:02.970Z,1.50
2024-02-07T19:19:48.640Z,1.70
2024-02-07T19:21:33.650Z,1.60
2024-02-07T19:23:18.641Z,1.60
2024-02-07T19:25:07.270Z,1.70
2024-02-07T19:26:52.680Z,1.60
2024-02-07T19:28:38.250Z,1.60
2024-02-07T19:30:23.268Z,1.60
2024-02-07T19:32:12.167Z,1.60
2024-02-07T19:33:57.520Z,1.80
2024-02-07T19:35:42.340Z,1.50
2024-02-07T19:37:28.787Z,1.70
2024-02-07T19:39:13.844Z,1.70
2024-02-07T19:40:59.129Z,1.70
2024-02-07T19:42:44.449Z,2.00
2024-02-07T19:44:32.189Z,1.70
2024-02-07T19:46:21.298Z,1.50
2024-02-07T19:48:07.539Z,1.60
2024-02-07T19:49:52.558Z,1.70
2024-02-07T19:51:38.138Z,1.70
2024-02-07T19:53:22.861Z,1.70
2024-02-07T19:55:10.571Z,1.80
2024-02-07T19:56:56.666Z,1.70
2024-02-07T19:58:43.177Z,1.60
2024-02-07T20:00:28.850Z,1.60
2024-02-07T20:02:14.025Z,1.80
2024-02-07T20:03:59.209Z,1.60
2024-02-07T20:05:44.519Z,2.10
2024-02-07T20:07:31.650Z,1.90
2024-02-07T20:09:16.891Z,1.90
2024-02-07T20:11:06.749Z,1.90
2024-02-07T20:12:55.917Z,1.80
2024-02-07T20:14:47.863Z,1.90
2024-02-07T20:16:33.482Z,1.70
2024-02-07T20:18:18.977Z,2.20
2024-02-07T20:20:04.156Z,2.00
2024-02-07T20:21:49.425Z,1.90
2024-02-07T20:23:34.799Z,1.90
2024-02-07T20:25:20.024Z,1.80
2024-02-07T20:27:06.505Z,2.00
2024-02-07T20:28:51.483Z,2.00
2024-02-07T20:30:36.998Z,2.10
2024-02-07T20:32:25.320Z,1.90
2024-02-07T20:34:11.305Z,2.10
2024-02-07T20:35:56.458Z,1.60
2024-02-07T20:37:41.627Z,1.80
2024-02-07T20:39:26.486Z,1.70
2024-02-07T20:41:11.360Z,1.90
2024-02-07T20:42:56.719Z,2.00
2024-02-07T20:44:45.640Z,2.10
2024-02-07T20:46:32.094Z,1.90
2024-02-07T20:48:19.037Z,1.80
2024-02-07T20:50:06.739Z,1.90
2024-02-07T20:51:52.048Z,1.80
2024-02-07T20:53:37.091Z,2.00
2024-02-07T20:55:22.128Z,2.10
2024-02-07T20:57:11.836Z,1.60
2024-02-07T20:59:00.394Z,1.60
2024-02-07T21:00:45.319Z,1.80
2024-02-07T21:02:33.393Z,1.60
2024-02-07T21:04:24.460Z,1.90
2024-02-07T21:06:10.738Z,1.60
2024-02-07T21:07:55.783Z,2.50
2024-02-07T21:09:45.385Z,1.80
2024-02-07T21:11:35.182Z,1.90
2024-02-07T21:13:24.136Z,1.60
2024-02-07T21:15:12.804Z,1.70
2024-02-07T21:16:57.769Z,1.60
2024-02-07T21:18:47.585Z,1.80
2024-02-07T21:20:34.177Z,1.80
2024-02-07T21:22:21.276Z,1.60
2024-02-07T21:24:08.428Z,1.80
2024-02-07T21:25:56.122Z,1.70
2024-02-07T21:27:49.897Z,1.70
2024-02-07T21:29:38.138Z,1.50
2024-02-07T21:31:22.908Z,2.00
2024-02-07T21:33:14.252Z,2.00
2024-02-07T21:35:03.270Z,1.60
2024-02-07T21:36:56.257Z,1.80
2024-02-07T21:38:43.781Z,1.90
2024-02-07T21:40:31.586Z,1.60
2024-02-07T21:42:22.535Z,1.50
2024-02-07T21:44:08.191Z,1.60
2024-02-07T21:46:00.310Z,1.50
2024-02-07T21:47:53.114Z,2.00
2024-02-07T21:49:43.172Z,1.70
2024-02-07T21:51:32.215Z,1.60
2024-02-07T21:53:19.882Z,1.80
2024-02-07T21:55:09.772Z,1.50
2024-02-07T21:56:57.880Z,1.60
2024-02-07T21:58:46.101Z,1.60
2024-02-07T22:00:36.753Z,1.80
2024-02-07T22:02:23.363Z,1.80
2024-02-07T22:04:12.724Z,1.70
2024-02-07T22:06:01.124Z,1.70
2024-02-07T22:07:53.865Z,1.70
2024-02-07T22:09:43.751Z,1.80
2024-02-07T22:11:33.345Z,1.90
2024-02-07T22:13:24.147Z,1.90
2024-02-07T22:15:11.632Z,1.70
2024-02-07T22:16:56.349Z,1.80
2024-02-07T22:18:41.206Z,1.80
2024-02-07T22:20:25.893Z,1.50
2024-02-07T22:22:13.717Z,1.60
2024-02-07T22:23:59.349Z,1.70
2024-02-07T22:25:43.946Z,1.70
2024-02-07T22:27:31.132Z,1.70
2024-02-07T22:29:18.448Z,1.60
2024-02-07T22:31:08.533Z,1.80
2024-02-07T22:32:59.245Z,1.70
2024-02-07T22:34:54.645Z,1.50
2024-02-07T22:36:40.741Z,1.70
2024-02-07T22:38:26.702Z,1.80
2024-02-07T22:40:14.262Z,1.70
2024-02-07T22:41:58.773Z,2.00
2024-02-07T22:43:43.433Z,1.90
2024-02-07T22:45:29.796Z,1.80
2024-02-07T22:47:22.473Z,1.70
2024-02-07T22:49:18.496Z,1.50
2024-02-07T22:51:07.351Z,1.70
2024-02-07T22:52:56.499Z,1.70
2024-02-07T22:54:51.663Z,1.80
2024-02-07T22:56:49.548Z,1.80
2024-02-07T22:58:40.903Z,1.50
2024-02-07T23:00:38.463Z,1.80
2024-02-07T23:02:36.003Z,1.60
2024-02-07T23:04:27.161Z,1.70
2024-02-07T23:06:18.511Z,1.40
2024-02-07T23:08:10.020Z,1.70
2024-02-07T23:09:59.320Z,1.60
2024-02-07T23:11:56.440Z,1.50
2024-02-07T23:13:49.988Z,1.40
2024-02-07T23:15:46.449Z,1.60
2024-02-07T23:17:41.010Z,1.50
2024-02-07T23:19:33.702Z,1.50
2024-02-07T23:21:25.251Z,1.60
2024-02-07T23:23:27.048Z,1.60
2024-02-07T23:25:27.009Z,1.80
2024-02-07T23:27:15.613Z,1.50
2024-02-07T23:29:08.526Z,1.60
2024-02-07T23:31:04.787Z,1.50
2024-02-07T23:32:56.785Z,1.30
2024-02-07T23:34:49.817Z,1.60
2024-02-07T23:36:44.046Z,1.50
2024-02-07T23:38:32.860Z,1.70
2024-02-07T23:40:26.258Z,1.50
2024-02-07T23:42:22.953Z,1.50
2024-02-07T23:45:39.683Z,1.60
2024-02-07T23:47:38.439Z,1.50
2024-02-07T23:49:43.552Z,1.40
2024-02-07T23:51:46.000Z,1.50
2024-02-07T23:53:38.198Z,1.60
2024-02-07T23:55:32.759Z,1.50
2024-02-07T23:57:27.334Z,1.50
2024-02-07T23:59:18.514Z,1.40
